Time;durP1;ratioP1;P1;durP2;ratioP2;P2;SDS_P1;SDS_P2;PMS_P1;PMS_P2;Temp;Humidity;BMP_temperature;BMP_pressure;BME280_temperature;BME280_humidity;BME280_pressure;Samples;Min_cycle;Max_cycle;Signal;HPM_P1;HPM_P2
2024/03/30 00:02:01;;;;;;;4.13;3.72;;;13.60;99.90;;;13.91;83.62;99488.03;5034777;28;20086;-75
2024/03/30 00:04:28;;;;;;;4.20;3.80;;;13.60;99.90;;;13.77;84.03;99493.03;5051310;28;20095;-75
2024/03/30 00:06:55;;;;;;;4.18;3.78;;;13.50;99.90;;;13.69;84.45;99487.16;5051708;28;20049;-74
2024/03/30 00:09:22;;;;;;;4.45;3.58;;;13.50;99.90;;;13.65;84.56;99497.03;5051472;28;20040;-74
2024/03/30 00:11:51;;;;;;;4.35;3.90;;;13.40;99.90;;;13.68;84.51;99506.69;5050149;28;20072;-74
2024/03/30 00:14:17;;;;;;;3.97;3.58;;;13.40;99.90;;;13.69;84.79;99498.66;5050231;28;20454;-74
2024/03/30 00:16:44;;;;;;;4.45;3.83;;;13.40;99.90;;;13.76;84.23;99486.00;5049254;28;20529;-74
2024/03/30 00:19:13;;;;;;;4.10;3.70;;;13.50;99.90;;;13.87;84.28;99473.16;5049191;28;20041;-74
2024/03/30 00:21:40;;;;;;;4.25;3.85;;;13.50;99.90;;;13.89;84.20;99471.28;5049757;28;20045;-74
2024/03/30 00:24:06;;;;;;;3.92;3.55;;;13.60;99.90;;;13.75;84.41;99471.84;5049266;28;20120;-74
2024/03/30 00:26:34;;;;;;;4.22;3.83;;;13.50;99.90;;;13.81;84.13;99468.94;5032705;28;20152;-74
2024/03/30 00:29:02;;;;;;;4.55;4.15;;;13.50;99.90;;;13.23;84.13;99372.09;5032429;28;20143;-74
2024/03/30 00:31:31;;;;;;;5.88;3.60;;;13.50;99.90;;;13.93;84.11;99478.22;5049150;28;20041;-74
2024/03/30 00:33:57;;;;;;;5.22;4.28;;;13.60;99.90;;;13.86;83.93;99487.38;5049920;28;20056;-74
2024/03/30 00:36:24;;;;;;;4.20;3.85;;;13.60;99.90;;;13.86;83.63;99488.22;5053043;28;20049;-74
2024/03/30 00:38:51;;;;;;;3.90;3.60;;;13.60;99.90;;;13.99;83.89;99480.63;5053036;28;20091;-74
2024/03/30 00:41:18;;;;;;;4.60;4.20;;;13.60;99.90;;;13.92;82.98;99477.34;5053622;28;20075;-74
2024/03/30 00:43:45;;;;;;;4.40;4.00;;;13.70;99.90;;;13.88;82.80;99483.72;5052919;28;20045;-74
2024/03/30 00:46:14;;;;;;;3.92;3.70;;;13.70;99.90;;;14.03;82.80;99463.63;5052906;28;20060;-74
2024/03/30 00:48:40;;;;;;;4.22;3.83;;;13.70;99.90;;;14.12;82.68;99471.22;5052842;28;20037;-75
2024/03/30 00:51:08;;;;;;;4.50;4.10;;;13.80;99.90;;;14.19;82.44;99464.72;5052860;28;20041;-74
2024/03/30 00:53:35;;;;;;;4.20;3.90;;;13.80;99.90;;;14.06;82.35;99439.56;5053228;28;20098;-74
2024/03/30 00:56:02;;;;;;;4.78;4.00;;;13.90;99.90;;;14.15;81.82;99469.28;5053031;28;20052;-74
2024/03/30 00:58:29;;;;;;;6.15;4.10;;;13.80;99.90;;;14.18;81.96;99477.16;5036162;28;20041;-75
2024/03/30 01:00:57;;;;;;;5.15;3.88;;;13.80;99.90;;;14.20;81.76;99477.09;5052801;28;20237;-75
2024/03/30 01:03:26;;;;;;;4.47;4.13;;;13.90;99.90;;;14.19;81.51;99481.53;5052456;28;20480;-75
2024/03/30 01:05:53;;;;;;;4.18;3.88;;;13.90;99.90;;;14.22;81.34;99481.44;5052549;28;20492;-75
2024/03/30 01:08:20;;;;;;;4.40;4.00;;;13.80;99.90;;;14.16;81.13;99488.78;5052685;28;20052;-75
2024/03/30 01:10:49;;;;;;;4.00;3.70;;;13.80;99.90;;;14.18;81.18;99486.94;5052633;28;20124;-75
2024/03/30 01:13:16;;;;;;;5.47;4.15;;;13.80;99.90;;;14.14;81.08;99472.03;5052560;28;20057;-75
2024/03/30 01:15:44;;;;;;;4.53;3.85;;;13.80;99.90;;;14.17;81.01;99474.53;5052423;28;20043;-75
2024/03/30 01:18:11;;;;;;;3.83;3.53;;;13.80;99.90;;;14.10;80.92;99479.28;5035834;28;20037;-75
2024/03/30 01:20:42;;;;;;;6.13;3.97;;;13.80;99.90;;;14.06;81.12;99466.16;5052363;28;20053;-75
2024/03/30 01:23:09;;;;;;;3.95;3.65;;;13.70;99.90;;;14.04;81.19;99470.66;5052980;28;20040;-75
2024/03/30 01:25:37;;;;;;;4.00;3.70;;;13.70;99.90;;;14.05;80.80;99459.97;5052241;28;20161;-75
2024/03/30 01:28:08;;;;;;;4.22;3.92;;;13.70;99.90;;;13.94;80.82;99469.31;5052043;28;20053;-75
2024/03/30 01:30:36;;;;;;;4.20;3.80;;;13.70;99.90;;;13.84;81.30;99458.19;5051370;28;20049;-75
2024/03/30 01:33:03;;;;;;;8.75;4.72;;;13.60;99.90;;;13.68;82.08;99458.88;5051334;28;20118;-75
2024/03/30 01:35:31;;;;;;;15.68;10.55;;;13.40;99.90;;;13.56;82.65;99466.41;5051415;28;20136;-75
2024/03/30 01:37:59;;;;;;;16.75;9.98;;;13.40;99.90;;;13.66;82.46;99460.72;5051445;28;20106;-75
2024/03/30 01:40:31;;;;;;;16.30;8.63;;;13.40;99.90;;;13.63;82.77;99464.34;5051517;28;20041;-75
2024/03/30 01:42:58;;;;;;;7.75;6.20;;;13.30;99.90;;;13.56;82.57;99468.19;5034492;28;20132;-75
2024/03/30 01:45:27;;;;;;;7.10;5.15;;;13.30;99.90;;;13.50;82.83;99461.31;5034313;28;20094;-74
2024/03/30 01:47:53;;;;;;;5.88;5.10;;;13.30;99.90;;;13.52;82.55;99448.84;5051108;28;20056;-75
2024/03/30 01:50:21;;;;;;;6.78;4.70;;;13.30;99.90;;;13.58;82.12;99443.28;5051108;28;20505;-75
2024/03/30 01:52:48;;;;;;;4.93;4.32;;;13.30;99.90;;;13.63;82.26;99447.56;5050979;28;20037;-75
2024/03/30 01:55:17;;;;;;;4.40;4.03;;;13.40;99.90;;;13.50;82.58;99471.94;5050819;28;20041;-75
2024/03/30 01:57:45;;;;;;;5.45;4.50;;;13.30;99.90;;;13.57;82.71;99451.31;5034706;28;20453;-75
2024/03/30 02:00:12;;;;;;;4.20;3.80;;;13.30;99.90;;;13.39;83.26;99441.41;5050866;28;20044;-75
2024/03/30 02:02:40;;;;;;;4.10;3.80;;;13.10;99.90;;;13.12;84.54;99442.47;5050849;28;20120;-74
2024/03/30 02:05:07;;;;;;;4.10;3.70;;;12.90;99.90;;;13.12;85.29;99446.00;5050934;28;20044;-75
2024/03/30 02:07:34;;;;;;;4.80;4.38;;;12.70;99.90;;;13.24;84.87;99448.16;5050842;28;20053;-74
2024/03/30 02:10:03;;;;;;;4.80;4.05;;;12.80;99.90;;;12.89;84.68;99384.88;5050709;28;20041;-75
2024/03/30 02:12:33;;;;;;;6.55;4.30;;;12.90;99.90;;;13.31;84.96;99440.84;5050804;28;20056;-75
2024/03/30 02:14:59;;;;;;;4.70;4.30;;;12.90;99.90;;;13.19;85.22;99455.44;5050706;28;20041;-75
2024/03/30 02:17:27;;;;;;;4.72;4.18;;;12.90;99.90;;;13.11;85.71;99462.81;5050996;28;20037;-75
2024/03/30 02:19:57;;;;;;;5.75;4.65;;;12.70;99.90;;;13.00;86.22;99458.81;5034104;28;20132;-75
2024/03/30 02:22:24;;;;;;;5.60;4.60;;;12.70;99.90;;;12.75;87.03;99432.31;5050815;28;20087;-75
2024/03/30 02:24:52;;;;;;;4.47;4.13;;;12.60;99.90;;;12.85;87.71;99462.91;5051308;28;20053;-74
2024/03/30 02:27:20;;;;;;;6.93;4.95;;;12.60;99.90;;;12.82;88.09;99464.78;5050917;28;20041;-75
2024/03/30 02:29:52;;;;;;;5.20;4.65;;;12.50;99.90;;;12.78;88.70;99464.03;5050516;28;20037;-75
2024/03/30 02:32:19;;;;;;;5.18;4.68;;;12.50;99.90;;;12.87;89.00;99458.41;5050507;28;20051;-75
2024/03/30 02:34:46;;;;;;;4.80;4.40;;;12.50;99.90;;;12.91;89.02;99465.31;5050302;28;20067;-74
2024/03/30 02:37:13;;;;;;;5.10;4.70;;;12.60;99.90;;;12.89;89.42;99453.88;5050253;28;20064;-74
2024/03/30 02:39:40;;;;;;;5.93;5.03;;;12.60;99.90;;;12.98;89.33;99456.22;5050469;28;20037;-75
2024/03/30 02:42:09;;;;;;;4.88;4.47;;;12.70;99.90;;;12.97;89.63;99465.09;5050136;28;20401;-75
2024/03/30 02:44:35;;;;;;;5.28;4.78;;;12.70;99.90;;;13.06;89.66;99459.50;5050197;28;20065;-75
2024/03/30 02:47:03;;;;;;;5.00;4.50;;;12.80;99.90;;;13.07;88.98;99458.56;5050014;28;20045;-74
2024/03/30 02:49:30;;;;;;;6.45;4.82;;;12.80;99.90;;;13.00;88.68;99437.56;5050218;28;20626;-75
2024/03/30 02:51:57;;;;;;;5.32;4.47;;;12.90;99.90;;;13.14;88.81;99436.16;5049852;28;20037;-75
2024/03/30 02:54:24;;;;;;;5.47;4.40;;;12.90;99.90;;;13.31;88.60;99452.34;5033544;28;20044;-75
2024/03/30 02:56:51;;;;;;;4.20;3.90;;;13.00;99.90;;;12.69;88.37;99332.59;5049279;28;20494;-75
2024/03/30 02:59:19;;;;;;;4.80;4.40;;;13.00;99.90;;;13.41;87.64;99440.41;5049911;28;20053;-75
2024/03/30 03:01:46;;;;;;;4.68;4.28;;;13.10;99.90;;;13.52;87.61;99443.53;5033277;28;20040;-74
2024/03/30 03:04:12;;;;;;;7.13;4.50;;;13.20;99.90;;;13.63;87.14;99447.56;5049632;28;20405;-74
2024/03/30 03:06:40;;;;;;;5.40;4.45;;;13.20;99.90;;;13.68;87.04;99443.78;5033260;28;20099;-75
2024/03/30 03:09:07;;;;;;;4.75;4.00;;;13.30;99.90;;;13.72;86.84;99449.84;5049835;28;20044;-75
2024/03/30 03:11:34;;;;;;;4.95;4.40;;;13.30;99.90;;;13.74;86.84;99437.38;5033105;28;20159;-74
2024/03/30 03:14:01;;;;;;;4.72;4.32;;;13.40;99.90;;;13.79;86.50;99435.38;5049641;28;20060;-74
2024/03/30 03:16:30;;;;;;;4.75;4.28;;;13.40;99.90;;;13.81;86.82;99439.72;5032808;28;20048;-75
2024/03/30 03:18:56;;;;;;;5.38;4.90;;;13.40;99.90;;;13.63;87.02;99421.00;5049480;28;20044;-75
2024/03/30 03:21:23;;;;;;;4.85;4.55;;;13.40;99.90;;;13.80;86.97;99445.94;5049652;28;20070;-75
2024/03/30 03:23:51;;;;;;;4.90;4.38;;;13.40;99.90;;;13.67;87.10;99426.09;5049487;28;20474;-74
2024/03/30 03:26:18;;;;;;;5.43;5.03;;;13.40;99.90;;;13.66;87.02;99428.84;5049222;28;20037;-75
2024/03/30 03:28:45;;;;;;;5.18;4.78;;;13.30;99.90;;;13.62;86.92;99437.84;5049417;28;20048;-75
2024/03/30 03:31:12;;;;;;;5.20;4.70;;;13.20;99.90;;;13.59;87.27;99434.38;5049454;28;20107;-74
2024/03/30 03:33:40;;;;;;;5.13;4.72;;;13.20;99.90;;;12.88;87.41;99303.56;5049110;28;20037;-74
2024/03/30 03:36:08;;;;;;;4.78;4.20;;;13.20;99.90;;;13.61;87.49;99431.66;5032512;28;20044;-74
2024/03/30 03:38:34;;;;;;;5.20;4.70;;;13.20;99.90;;;13.57;87.57;99427.41;5049299;28;20098;-74
2024/03/30 03:41:01;;;;;;;4.90;4.50;;;13.20;99.90;;;13.54;87.45;99430.19;5049453;28;20048;-74
2024/03/30 03:43:28;;;;;;;7.82;5.07;;;13.20;99.90;;;13.47;87.98;99432.22;5048912;28;20037;-74
2024/03/30 03:45:57;;;;;;;5.15;4.75;;;13.20;99.90;;;13.51;88.12;99436.47;5048855;28;20049;-74
2024/03/30 03:48:23;;;;;;;5.72;5.00;;;13.10;99.90;;;13.41;88.58;99432.44;5049034;28;20052;-74
2024/03/30 03:50:52;;;;;;;5.28;4.80;;;13.10;99.90;;;13.40;88.72;99419.22;5048819;28;20402;-75
2024/03/30 03:53:18;;;;;;;5.65;5.10;;;13.00;99.90;;;12.98;88.61;99342.09;5048870;28;20064;-74
2024/03/30 03:55:46;;;;;;;5.63;5.07;;;13.00;99.90;;;13.43;88.76;99414.66;5048587;28;20051;-75
2024/03/30 03:58:12;;;;;;;5.55;5.13;;;13.00;99.90;;;13.32;88.72;99414.22;5048911;28;20037;-74
2024/03/30 04:00:40;;;;;;;5.32;4.78;;;13.00;99.90;;;13.42;88.63;99414.72;5048871;28;20186;-74
2024/03/30 04:03:06;;;;;;;5.53;4.90;;;13.00;99.90;;;13.50;88.66;99413.50;5048977;28;20402;-75
2024/03/30 04:05:34;;;;;;;5.45;4.95;;;13.10;99.90;;;13.48;88.78;99406.53;5048662;28;20087;-75
2024/03/30 04:08:02;;;;;;;5.72;5.13;;;13.10;99.90;;;13.52;88.49;99403.69;5048741;28;20037;-74
2024/03/30 04:10:29;;;;;;;5.90;4.97;;;13.10;99.90;;;13.52;88.38;99401.03;5048499;28;20041;-74
2024/03/30 04:12:56;;;;;;;5.90;5.30;;;13.10;99.90;;;13.47;88.38;99387.06;5048303;28;20081;-75
2024/03/30 04:15:23;;;;;;;5.50;5.00;;;13.10;99.90;;;13.58;87.92;99400.78;5031975;28;20453;-74
2024/03/30 04:17:50;;;;;;;5.18;4.78;;;13.20;99.90;;;13.63;88.00;99400.59;5048593;28;20033;-75
2024/03/30 04:20:17;;;;;;;5.63;5.13;;;13.20;99.90;;;13.67;87.73;99404.84;5048512;28;20131;-75
2024/03/30 04:22:44;;;;;;;5.63;5.13;;;13.20;99.90;;;13.69;87.46;99399.47;5031929;28;20075;-75
2024/03/30 04:25:12;;;;;;;5.90;5.40;;;13.30;99.90;;;13.70;87.35;99399.44;5031968;28;20045;-74
2024/03/30 04:27:40;;;;;;;5.85;5.25;;;13.30;99.90;;;13.72;87.41;99402.03;5031863;28;20041;-75
2024/03/30 04:30:11;;;;;;;10.20;5.38;;;13.30;99.90;;;13.70;87.24;99398.56;5048502;28;20056;-74
2024/03/30 04:32:37;;;;;;;5.30;4.90;;;13.30;99.90;;;13.66;88.05;99391.63;5048627;28;20068;-75
2024/03/30 04:35:05;;;;;;;6.05;5.35;;;13.20;99.90;;;13.62;88.49;99387.38;5048627;28;20053;-74
2024/03/30 04:37:33;;;;;;;6.18;5.57;;;13.20;99.90;;;13.65;88.74;99387.22;5048489;28;20048;-75
2024/03/30 04:40:01;;;;;;;5.60;5.13;;;13.20;99.90;;;13.65;88.88;99382.78;5048485;28;20128;-74
2024/03/30 04:42:29;;;;;;;6.18;5.30;;;13.20;99.90;;;13.59;88.86;99362.66;5031741;28;20090;-74
2024/03/30 04:44:56;;;;;;;6.25;5.65;;;13.20;99.90;;;13.56;89.09;99368.09;5048535;28;20033;-74
2024/03/30 04:47:23;;;;;;;6.00;5.40;;;13.20;99.90;;;13.50;89.30;99355.06;5048640;28;20056;-74
2024/03/30 04:49:50;;;;;;;6.57;5.75;;;13.10;99.90;;;13.64;89.75;99364.25;5031936;28;20069;-74
2024/03/30 04:52:17;;;;;;;5.93;5.43;;;13.10;99.90;;;13.67;90.19;99377.41;5049043;28;20045;-74
2024/03/30 04:54:44;;;;;;;6.88;5.78;;;13.20;99.90;;;13.70;90.36;99370.19;5048655;28;20448;-74
2024/03/30 04:57:11;;;;;;;5.80;5.40;;;13.20;99.90;;;13.69;90.30;99364.94;5048809;28;20041;-74
2024/03/30 04:59:39;;;;;;;6.90;6.03;;;13.20;99.90;;;13.72;89.87;99370.13;5048472;28;20111;-75
2024/03/30 05:02:07;;;;;;;6.72;6.13;;;13.20;99.90;;;13.70;89.92;99377.31;5032015;28;20098;-75
2024/03/30 05:04:33;;;;;;;6.43;5.82;;;13.20;99.90;;;13.68;89.90;99372.06;5048791;28;20045;-74
2024/03/30 05:07:00;;;;;;;6.63;6.03;;;13.20;99.90;;;13.68;90.09;99376.50;5048381;28;20049;-74
2024/03/30 05:09:27;;;;;;;6.15;5.65;;;13.20;99.90;;;13.63;90.18;99367.88;5048213;28;20034;-74
2024/03/30 05:11:54;;;;;;;6.32;5.72;;;13.20;99.90;;;13.62;90.36;99374.09;5031585;28;20052;-74
2024/03/30 05:14:21;;;;;;;6.57;5.97;;;13.10;99.90;;;13.64;90.14;99393.50;5048447;28;20131;-74
2024/03/30 05:16:49;;;;;;;7.13;6.43;;;13.10;99.90;;;13.65;90.70;99390.75;5031624;28;20103;-74
2024/03/30 05:21:58;;;;;;;6.82;6.22;;;13.10;99.90;;;13.64;91.00;99356.28;5050960;28;20052;-74
2024/03/30 05:24:25;;;;;;;7.43;6.72;;;13.20;99.90;;;13.68;91.39;99371.19;5035116;28;20500;-74
2024/03/30 05:26:52;;;;;;;6.50;5.90;;;13.20;99.90;;;13.70;91.38;99364.00;5051545;28;20462;-74
2024/03/30 05:29:19;;;;;;;7.43;6.82;;;13.20;99.90;;;13.70;91.53;99364.00;5051573;28;20405;-75
2024/03/30 05:31:46;;;;;;;7.70;6.90;;;13.20;99.90;;;13.67;91.66;99364.13;5051524;28;20143;-74
2024/03/30 05:34:14;;;;;;;7.28;6.68;;;13.20;99.90;;;13.65;92.69;99363.31;5051706;28;20051;-74
2024/03/30 05:36:41;;;;;;;7.88;7.22;;;13.10;99.90;;;13.64;92.79;99361.59;5051226;28;20716;-74
2024/03/30 05:39:09;;;;;;;7.90;7.20;;;13.10;99.90;;;13.65;92.75;99358.88;5051262;28;20659;-74
2024/03/30 05:41:36;;;;;;;7.90;7.20;;;13.10;99.90;;;13.67;92.66;99369.44;5051399;28;20131;-74
2024/03/30 05:44:03;;;;;;;7.75;7.13;;;13.20;99.90;;;13.66;93.28;99367.72;5051249;28;20508;-74
2024/03/30 05:46:30;;;;;;;9.95;8.43;;;13.10;99.90;;;13.67;93.56;99367.66;5051175;28;20131;-74
2024/03/30 05:48:57;;;;;;;9.05;8.13;;;13.20;99.90;;;13.61;93.79;99362.59;5051085;28;20091;-74
2024/03/30 05:51:25;;;;;;;9.07;8.18;;;13.10;99.90;;;13.55;94.23;99363.69;5051022;28;20044;-74
2024/03/30 05:53:53;;;;;;;10.25;9.20;;;13.10;99.90;;;13.30;94.51;99365.63;5034441;28;20347;-74
2024/03/30 05:56:19;;;;;;;10.13;9.13;;;12.90;99.90;;;12.90;96.93;99357.44;5050930;28;20045;-74
2024/03/30 05:58:47;;;;;;;9.52;8.63;;;12.60;99.90;;;13.02;97.01;99354.31;5050826;28;20041;-74
2024/03/30 06:01:13;;;;;;;9.75;8.75;;;12.60;99.90;;;12.60;96.74;99252.50;5051000;28;20045;-74
2024/03/30 06:03:41;;;;;;;10.00;9.00;;;12.70;99.90;;;13.26;96.74;99364.00;5067335;28;20048;-74
2024/03/30 06:06:07;;;;;;;9.98;8.98;;;12.80;99.90;;;13.29;96.39;99363.03;5051138;28;20041;-74
2024/03/30 06:08:36;;;;;;;11.40;9.85;;;12.80;99.90;;;13.33;96.47;99361.97;5051122;28;20045;-74
2024/03/30 06:11:02;;;;;;;10.93;9.70;;;12.90;99.90;;;13.38;96.43;99366.19;5050789;28;20037;-73
2024/03/30 06:13:30;;;;;;;10.98;9.43;;;12.90;99.90;;;13.41;96.15;99368.69;5050595;28;20249;-74
2024/03/30 06:16:02;;;;;;;11.23;10.02;;;13.00;99.90;;;13.38;96.11;99367.97;5050574;28;20063;-73
2024/03/30 06:18:29;;;;;;;10.90;9.75;;;13.00;99.90;;;13.44;95.94;99371.25;5050526;28;20041;-73
2024/03/30 06:20:56;;;;;;;11.75;10.55;;;13.00;99.90;;;13.34;96.49;99347.75;5050610;28;20041;-73
2024/03/30 06:23:23;;;;;;;12.30;10.32;;;13.00;99.90;;;13.43;96.63;99368.66;5050407;28;20048;-73
2024/03/30 06:25:52;;;;;;;12.55;11.20;;;13.00;99.90;;;13.06;96.82;99294.03;5050415;28;20120;-73
2024/03/30 06:28:18;;;;;;;11.43;10.25;;;13.00;99.90;;;13.46;96.58;99368.53;5050337;28;20033;-73
2024/03/30 06:30:46;;;;;;;13.80;11.25;;;13.00;99.90;;;13.49;96.99;99368.41;5066862;28;20257;-73
2024/03/30 06:33:12;;;;;;;14.35;12.20;;;13.00;99.90;;;13.45;96.53;99365.00;5050230;28;20139;-73
2024/03/30 06:35:40;;;;;;;15.60;12.88;;;13.00;99.90;;;13.47;96.49;99371.13;5050120;28;20037;-73
2024/03/30 06:38:06;;;;;;;15.93;12.30;;;13.00;99.90;;;13.52;96.21;99374.47;5033662;28;20053;-73
2024/03/30 06:46:06;;;;;;;15.77;12.88;;;13.00;99.90;;;13.50;96.41;99376.31;5049994;28;20557;-73
2024/03/30 06:48:33;;;;;;;15.23;13.52;;;13.00;99.90;;;13.52;96.28;99371.81;5050038;28;20053;-73
2024/03/30 06:51:01;;;;;;;16.48;14.00;;;13.00;99.90;;;13.50;96.42;99363.03;5050186;28;20037;-73
2024/03/30 06:53:27;;;;;;;18.00;13.65;;;13.00;99.90;;;13.49;96.72;99357.78;5049775;28;20102;-73
2024/03/30 06:55:56;;;;;;;16.88;13.68;;;13.00;99.90;;;13.52;96.60;99361.19;5050043;28;20044;-73
2024/03/30 06:58:24;;;;;;;17.50;14.15;;;13.00;99.90;;;13.53;97.10;99365.56;5049864;28;20482;-73
2024/03/30 07:00:51;;;;;;;17.05;13.50;;;13.00;99.90;;;13.53;97.02;99373.53;5049772;28;20125;-74
2024/03/30 07:03:18;;;;;;;15.90;14.20;;;13.00;99.90;;;13.47;96.98;99360.50;5050072;28;20045;-73
2024/03/30 07:05:45;;;;;;;17.00;15.18;;;13.10;99.90;;;13.54;97.18;99387.69;5049637;28;20037;-73
2024/03/30 07:08:12;;;;;;;16.35;14.65;;;13.10;99.90;;;13.58;97.15;99378.66;5033252;28;20436;-73
2024/03/30 07:10:39;;;;;;;17.20;14.07;;;13.10;99.90;;;13.63;97.17;99367.88;5033078;28;20103;-73
2024/03/30 07:13:05;;;;;;;17.75;14.48;;;13.10;99.90;;;13.60;97.22;99371.50;5032833;28;20119;-73
2024/03/30 07:15:36;;;;;;;16.67;14.90;;;13.10;99.90;;;13.61;97.22;99364.41;5049754;28;20040;-73
2024/03/30 07:18:03;;;;;;;15.68;14.00;;;13.10;99.90;;;13.63;97.25;99374.00;5049858;28;20037;-74
2024/03/30 07:20:31;;;;;;;15.32;13.73;;;13.10;99.90;;;13.61;97.06;99383.84;5049727;28;20098;-73
2024/03/30 07:22:57;;;;;;;18.02;13.63;;;13.10;99.90;;;13.65;96.97;99369.50;5049852;28;20041;-74
2024/03/30 07:25:25;;;;;;;14.90;12.90;;;13.20;99.90;;;13.63;96.67;99370.53;5049711;28;20094;-74
2024/03/30 07:27:51;;;;;;;17.48;13.15;;;13.10;99.90;;;13.64;96.20;99377.53;5049536;28;20045;-73
2024/03/30 07:30:19;;;;;;;14.52;13.00;;;13.10;99.90;;;13.44;96.17;99350.00;5049773;28;20033;-73
2024/03/30 07:32:47;;;;;;;15.00;13.50;;;13.10;99.90;;;13.57;96.43;99379.56;5066721;28;20041;-73
2024/03/30 07:35:15;;;;;;;15.52;13.00;;;13.10;99.90;;;13.57;96.51;99369.81;5049832;28;20048;-72
2024/03/30 07:37:41;;;;;;;15.20;13.70;;;13.10;99.90;;;13.61;96.66;99377.69;5049414;28;20079;-73
2024/03/30 07:40:10;;;;;;;16.35;13.35;;;13.10;99.90;;;13.06;96.63;99288.75;5049328;28;20037;-73
2024/03/30 07:42:36;;;;;;;15.73;14.10;;;13.10;99.90;;;13.63;96.62;99375.84;5048968;28;20140;-74
2024/03/30 07:45:05;;;;;;;17.17;14.68;;;13.10;99.90;;;13.67;96.83;99382.72;5049489;28;20037;-70
2024/03/30 07:47:31;;;;;;;17.35;15.23;;;13.20;99.90;;;13.70;96.58;99374.66;5049343;28;20044;-70
2024/03/30 07:50:00;;;;;;;17.90;14.98;;;13.20;99.90;;;13.75;96.42;99385.94;5048851;28;20059;-71
2024/03/30 07:52:27;;;;;;;19.90;16.67;;;13.30;99.90;;;13.72;96.61;99380.75;5032421;28;20153;-71
2024/03/30 07:54:54;;;;;;;20.45;17.73;;;13.30;99.90;;;13.76;96.96;99377.06;5049131;28;20033;-71
2024/03/30 07:57:22;;;;;;;20.38;16.77;;;13.30;99.90;;;13.74;96.55;99385.09;5048713;28;20112;-71
2024/03/30 07:59:50;;;;;;;18.35;16.23;;;13.30;99.90;;;13.77;96.67;99389.41;5032290;28;20126;-71
2024/03/30 08:02:17;;;;;;;18.80;16.80;;;13.30;99.90;;;13.76;96.78;99393.88;5048954;28;20099;-71
2024/03/30 08:04:49;;;;;;;17.13;15.32;;;13.30;99.90;;;13.73;96.69;99383.34;5048838;28;20068;-70
2024/03/30 08:07:21;;;;;;;15.77;13.95;;;13.30;99.90;;;13.74;96.94;99376.25;5032432;28;20063;-71
2024/03/30 08:09:51;;;;;;;15.57;13.45;;;13.30;99.90;;;13.73;96.94;99370.06;5049047;28;20060;-71
2024/03/30 08:12:21;;;;;;;15.93;14.32;;;13.30;99.90;;;13.71;97.34;99368.38;5048498;28;20037;-71
2024/03/30 08:14:51;;;;;;;15.40;13.75;;;13.30;99.90;;;13.66;97.37;99350.00;5032563;28;20547;-71
2024/03/30 08:17:20;;;;;;;14.23;12.82;;;13.20;99.90;;;13.74;97.13;99360.31;5048901;28;20041;-70
2024/03/30 08:19:48;;;;;;;16.17;14.48;;;13.30;99.90;;;13.52;96.92;99329.31;5048700;28;20056;-71
2024/03/30 08:22:15;;;;;;;15.05;13.57;;;13.30;99.90;;;12.99;96.91;99240.31;5048523;28;20033;-72
2024/03/30 08:24:44;;;;;;;13.82;12.43;;;13.30;99.90;;;13.69;96.67;99368.47;5048867;28;20041;-71
2024/03/30 08:27:11;;;;;;;14.23;12.80;;;13.30;99.90;;;12.99;96.30;99229.69;5048849;28;20115;-72
2024/03/30 08:29:39;;;;;;;13.23;11.82;;;13.30;99.90;;;13.70;96.61;99361.34;5048501;28;20037;-72
2024/03/30 08:32:06;;;;;;;12.27;11.07;;;13.20;99.90;;;13.69;96.52;99364.94;5032027;28;20053;-71
2024/03/30 08:34:34;;;;;;;12.68;11.38;;;13.20;99.90;;;13.67;96.71;99361.47;5048833;28;20040;-70
2024/03/30 08:37:00;;;;;;;13.00;11.68;;;13.20;99.90;;;13.68;96.61;99357.91;5048456;28;20056;-73
2024/03/30 08:39:27;;;;;;;12.30;11.20;;;13.20;99.90;;;13.70;96.44;99346.28;5048488;28;20056;-73
2024/03/30 08:41:55;;;;;;;12.60;11.40;;;13.30;99.90;;;13.67;96.84;99340.22;5031520;28;20045;-74
2024/03/30 08:44:23;;;;;;;12.98;11.68;;;13.20;99.90;;;13.66;96.78;99338.50;5048128;28;20041;-72
2024/03/30 08:46:49;;;;;;;13.73;12.43;;;13.20;99.90;;;13.66;97.11;99336.72;5031657;28;20045;-71
2024/03/30 08:49:17;;;;;;;14.93;13.35;;;13.20;99.90;;;13.67;96.91;99343.75;5048214;28;20508;-71
2024/03/30 08:51:43;;;;;;;17.23;15.55;;;13.20;99.90;;;13.63;96.93;99335.97;5048154;28;20045;-71
2024/03/30 08:54:11;;;;;;;17.50;15.73;;;13.20;99.90;;;13.62;97.29;99339.56;5048191;28;20040;-71
2024/03/30 08:56:37;;;;;;;17.90;16.02;;;13.20;99.90;;;13.64;97.59;99333.25;5051553;28;20052;-71
2024/03/30 08:59:06;;;;;;;19.27;16.25;;;13.20;99.90;;;13.68;97.51;99329.53;5052062;28;20393;-71
2024/03/30 09:01:33;;;;;;;20.55;18.35;;;13.20;99.90;;;13.68;98.12;99326.00;5052310;28;20102;-70
2024/03/30 09:04:00;;;;;;;21.90;19.60;;;13.20;99.90;;;13.68;97.80;99331.34;5035271;28;20057;-70
2024/03/30 09:06:26;;;;;;;20.27;18.20;;;13.30;99.90;;;13.70;97.82;99324.16;5051899;28;20037;-69
2024/03/30 09:08:54;;;;;;;21.83;19.50;;;13.30;99.90;;;13.71;98.25;99318.78;5035288;28;20060;-72
2024/03/30 09:11:20;;;;;;;22.00;19.70;;;13.30;99.90;;;13.69;98.14;99325.06;5052031;28;20037;-75
2024/03/30 09:13:47;;;;;;;22.90;20.40;;;13.20;99.90;;;13.64;98.24;99324.41;5051493;28;20065;-72
2024/03/30 09:16:15;;;;;;;23.55;20.90;;;13.20;99.90;;;13.68;98.08;99315.38;5051615;28;20163;-70
2024/03/30 09:18:43;;;;;;;22.02;19.73;;;13.30;99.90;;;13.73;97.73;99305.41;5051747;28;20037;-70
2024/03/30 09:21:09;;;;;;;22.08;19.77;;;13.30;99.90;;;13.67;98.00;99306.53;5051699;28;20098;-74
2024/03/30 09:23:37;;;;;;;18.27;16.35;;;13.30;99.90;;;13.59;98.34;99309.53;5051625;28;20041;-73
2024/03/30 09:26:03;;;;;;;19.70;16.65;;;13.20;99.90;;;13.62;98.32;99312.97;5051537;28;20087;-79
2024/03/30 09:28:30;;;;;;;17.20;15.40;;;13.20;99.90;;;13.62;97.92;99316.50;5051566;28;20632;-71
2024/03/30 09:30:57;;;;;;;15.20;13.80;;;13.20;99.90;;;13.56;98.02;99309.66;5053293;28;20379;-79
2024/03/30 09:33:26;;;;;;;14.25;12.85;;;13.20;99.90;;;13.60;97.76;99307.75;5053353;28;20045;-79
2024/03/30 09:35:54;;;;;;;14.85;13.23;;;13.20;99.90;;;13.58;98.10;99305.16;5053282;28;20417;-72
2024/03/30 09:38:22;;;;;;;15.00;13.45;;;13.20;99.90;;;13.52;97.78;99292.13;5053321;28;20041;-76
2024/03/30 09:40:55;;;;;;;19.45;14.38;;;13.20;99.90;;;13.51;97.95;99306.31;5053548;28;20041;-76
2024/03/30 09:43:23;;;;;;;16.20;14.30;;;13.10;99.90;;;13.48;98.28;99303.81;5053064;28;20501;-71
2024/03/30 09:45:51;;;;;;;16.55;14.85;;;13.10;99.90;;;13.46;98.84;99300.34;5033745;28;20083;-71
2024/03/30 09:48:20;;;;;;;17.63;15.35;;;13.10;99.90;;;13.49;98.80;99294.03;5051073;28;20435;-67
2024/03/30 09:50:54;;;;;;;19.50;17.50;;;13.10;99.90;;;13.46;98.86;99297.69;5051053;28;20390;-70
2024/03/30 09:53:24;;;;;;;19.92;17.83;;;13.10;99.90;;;13.43;99.36;99305.75;5050992;28;20460;-70
2024/03/30 09:55:53;;;;;;;20.67;18.33;;;13.10;99.90;;;13.50;99.10;99312.56;5050871;28;20071;-70
2024/03/30 09:58:20;;;;;;;19.98;17.90;;;13.10;99.90;;;13.47;99.12;99307.38;5051156;28;20041;-71
2024/03/30 10:00:49;;;;;;;18.95;17.00;;;13.10;99.90;;;13.62;98.91;99316.50;5051007;28;20045;-71
2024/03/30 10:03:15;;;;;;;18.67;16.60;;;13.20;99.90;;;13.65;98.67;99324.34;5051101;28;20115;-72
2024/03/30 10:05:48;;;;;;;16.27;14.57;;;13.20;99.90;;;13.63;98.57;99330.66;5050369;28;20060;-72
2024/03/30 10:08:19;;;;;;;12.57;11.27;;;13.20;99.90;;;13.64;98.55;99329.72;5050929;28;20489;-74
2024/03/30 10:10:54;;;;;;;12.13;10.93;;;13.20;99.90;;;13.62;97.89;99328.94;5051078;28;20037;-70
2024/03/30 10:13:29;;;;;;;11.85;10.65;;;13.30;99.90;;;13.66;98.00;99328.75;5050658;28;20671;-71
2024/03/30 10:15:57;;;;;;;10.60;9.60;;;13.30;99.90;;;13.52;98.14;99326.66;5050693;28;20045;-70
2024/03/30 10:18:24;;;;;;;10.15;9.18;;;13.20;99.90;;;13.50;98.23;99315.22;5050810;28;20409;-70
2024/03/30 10:20:53;;;;;;;10.57;9.63;;;13.10;99.90;;;13.53;98.20;99322.19;5050780;28;20045;-70
2024/03/30 10:23:21;;;;;;;10.15;9.25;;;13.10;99.90;;;13.58;98.77;99313.13;5050982;28;20041;-71